createdAt,value
2023-04-24T00:01:21.977Z,8.35
2023-04-24T00:03:45.784Z,7.65
2023-04-24T00:06:09.960Z,8.50
2023-04-24T00:08:35.129Z,8.55
2023-04-24T00:10:58.861Z,8.93
2023-04-24T00:13:22.465Z,8.50
2023-04-24T00:15:46.074Z,8.57
2023-04-24T00:18:09.673Z,8.23
2023-04-24T00:20:34.470Z,8.25
2023-04-24T00:22:58.246Z,8.73
2023-04-24T00:25:23.515Z,8.80
2023-04-24T00:27:47.146Z,8.35
2023-04-24T00:30:11.865Z,8.85
2023-04-24T00:32:35.540Z,8.63
2023-04-24T00:34:59.153Z,8.85
2023-04-24T00:37:22.743Z,8.88
2023-04-24T00:39:46.636Z,8.80
2023-04-24T00:42:11.912Z,8.13
2023-04-24T00:44:36.357Z,8.60
2023-04-24T00:47:01.442Z,8.80
2023-04-24T00:49:25.243Z,8.90
2023-04-24T00:51:50.329Z,8.65
2023-04-24T00:54:14.016Z,8.60
2023-04-24T00:56:37.852Z,9.25
2023-04-24T00:59:03.023Z,8.73
2023-04-24T01:01:27.019Z,8.95
2023-04-24T01:03:53.764Z,8.93
2023-04-24T01:06:18.248Z,9.48
2023-04-24T01:08:43.761Z,9.15
2023-04-24T01:11:07.626Z,9.07
2023-04-24T01:13:31.461Z,9.15
2023-04-24T01:15:56.432Z,9.32
2023-04-24T01:18:20.109Z,9.40
2023-04-24T01:20:46.138Z,9.10
2023-04-24T01:23:11.554Z,9.40
2023-04-24T01:25:35.660Z,8.88
2023-04-24T01:27:59.480Z,9.23
2023-04-24T01:30:23.104Z,9.43
2023-04-24T01:32:47.900Z,9.60
2023-04-24T01:35:11.961Z,9.77
2023-04-24T01:37:38.170Z,9.55
2023-04-24T01:40:04.654Z,10.35
2023-04-24T01:42:28.697Z,10.05
2023-04-24T01:44:52.992Z,10.80
2023-04-24T01:47:16.745Z,10.15
2023-04-24T01:49:41.681Z,10.98
2023-04-24T01:52:05.715Z,10.93
2023-04-24T01:54:29.330Z,11.48
2023-04-24T01:56:54.554Z,11.50
2023-04-24T01:59:19.874Z,11.63
2023-04-24T02:01:43.447Z,11.68
2023-04-24T02:04:08.989Z,11.70
2023-04-24T02:06:33.334Z,11.38
2023-04-24T02:08:57.963Z,11.95
2023-04-24T02:11:21.822Z,12.07
2023-04-24T02:13:46.890Z,12.30
2023-04-24T02:16:10.617Z,12.52
2023-04-24T02:18:34.206Z,11.95
2023-04-24T02:20:57.801Z,12.38
2023-04-24T02:23:21.530Z,12.50
2023-04-24T02:25:45.228Z,12.70
2023-04-24T02:28:08.825Z,12.35
2023-04-24T02:30:33.794Z,11.70
2023-04-24T02:32:57.400Z,12.15
2023-04-24T02:35:21.125Z,12.15
2023-04-24T02:37:44.690Z,13.30
2023-04-24T02:40:11.482Z,12.38
2023-04-24T02:42:35.027Z,13.07
2023-04-24T02:44:58.614Z,12.02
2023-04-24T02:47:23.600Z,12.63
2023-04-24T02:49:47.231Z,13.32
2023-04-24T02:52:11.457Z,12.38
2023-04-24T02:54:35.115Z,14.25
2023-04-24T02:56:58.935Z,14.13
2023-04-24T02:59:22.671Z,13.20
2023-04-24T03:01:46.325Z,13.23
2023-04-24T03:04:14.630Z,13.80
2023-04-24T03:06:38.254Z,13.68
2023-04-24T03:09:01.877Z,12.52
2023-04-24T03:11:25.481Z,12.45
2023-04-24T03:13:49.230Z,12.57
2023-04-24T03:16:12.859Z,12.63
2023-04-24T03:18:36.502Z,12.73
2023-04-24T03:21:04.532Z,12.80
2023-04-24T03:23:28.690Z,12.90
2023-04-24T03:25:52.497Z,12.85
2023-04-24T03:28:17.218Z,13.27
2023-04-24T03:30:45.678Z,12.90
2023-04-24T03:33:10.850Z,13.48
2023-04-24T03:35:40.811Z,12.98
2023-04-24T03:38:08.616Z,13.63
2023-04-24T03:40:41.393Z,13.45
2023-04-24T03:43:19.207Z,14.07
2023-04-24T03:45:43.567Z,14.35
2023-04-24T03:48:08.672Z,12.68
2023-04-24T03:50:32.438Z,13.32
2023-04-24T03:52:56.382Z,13.13
2023-04-24T03:55:32.695Z,13.85
2023-04-24T03:57:56.408Z,13.13
2023-04-24T04:00:20.498Z,14.05
2023-04-24T04:02:50.244Z,13.40
2023-04-24T04:05:13.944Z,13.45
2023-04-24T04:07:38.795Z,12.98
2023-04-24T04:10:02.544Z,12.07
2023-04-24T04:12:27.809Z,12.98
2023-04-24T04:14:51.427Z,13.10
2023-04-24T04:17:15.443Z,12.63
2023-04-24T04:19:39.680Z,12.10
2023-04-24T04:22:03.546Z,13.05
2023-04-24T04:24:39.020Z,11.95
2023-04-24T04:27:03.334Z,11.52
2023-04-24T04:29:33.774Z,11.63
2023-04-24T04:31:58.708Z,10.88
2023-04-24T04:34:23.622Z,11.07
2023-04-24T04:36:48.417Z,10.77
2023-04-24T04:39:29.235Z,10.82
2023-04-24T04:42:01.647Z,10.13
2023-04-24T04:44:33.768Z,10.43
2023-04-24T04:46:58.365Z,11.38
2023-04-24T04:49:29.598Z,10.50
2023-04-24T04:51:54.046Z,10.40
2023-04-24T04:54:18.675Z,10.05
2023-04-24T04:56:42.904Z,9.82
2023-04-24T04:59:07.463Z,9.65
2023-04-24T05:01:34.187Z,9.93
2023-04-24T05:03:58.033Z,9.35
2023-04-24T05:06:24.247Z,9.77
2023-04-24T05:08:49.775Z,9.15
2023-04-24T05:11:30.664Z,8.93
2023-04-24T05:13:55.485Z,9.00
2023-04-24T05:16:26.937Z,9.25
2023-04-24T05:18:53.657Z,8.48
2023-04-24T05:21:22.305Z,8.18
2023-04-24T05:26:18.827Z,7.57
2023-04-24T05:28:42.457Z,7.38
2023-04-24T05:31:09.056Z,6.70
2023-04-24T05:33:33.259Z,7.15
2023-04-24T05:36:01.252Z,6.50
2023-04-24T05:38:25.380Z,5.80
2023-04-24T05:40:48.978Z,5.70
2023-04-24T05:43:12.582Z,5.40
2023-04-24T05:45:37.087Z,5.40
2023-04-24T05:48:00.737Z,5.03
2023-04-24T05:50:24.528Z,5.43
2023-04-24T05:52:49.705Z,5.40
2023-04-24T05:55:22.909Z,4.53
2023-04-24T05:57:46.807Z,4.82
2023-04-24T06:00:13.115Z,4.93
2023-04-24T06:02:47.503Z,4.97
2023-04-24T06:05:11.601Z,4.80
2023-04-24T06:07:35.265Z,4.30
2023-04-24T06:10:03.261Z,4.28
2023-04-24T06:12:31.650Z,3.97
2023-04-24T06:15:00.137Z,3.38
2023-04-24T06:17:43.238Z,3.28
2023-04-24T06:20:09.306Z,3.50
2023-04-24T06:22:32.876Z,2.92
2023-04-24T06:24:56.470Z,3.20
2023-04-24T06:27:23.237Z,3.22
2023-04-24T06:29:46.835Z,2.92
2023-04-24T06:32:10.442Z,2.42
2023-04-24T06:34:35.197Z,2.80
2023-04-24T06:36:59.106Z,2.47
2023-04-24T06:39:22.712Z,2.17
2023-04-24T06:41:46.241Z,2.60
2023-04-24T06:44:18.438Z,1.73
2023-04-24T06:46:42.222Z,1.88
2023-04-24T06:49:05.801Z,1.70
2023-04-24T06:51:29.797Z,1.58
2023-04-24T06:53:54.790Z,1.50
2023-04-24T06:56:18.495Z,1.60
2023-04-24T06:58:42.066Z,1.40
2023-04-24T07:01:07.329Z,1.25
2023-04-24T07:03:32.366Z,1.20
2023-04-24T07:05:58.888Z,1.15
2023-04-24T07:08:23.142Z,1.00
2023-04-24T07:10:47.100Z,1.00
2023-04-24T07:13:10.762Z,1.13
2023-04-24T07:15:35.040Z,1.00
2023-04-24T07:18:00.023Z,0.90
2023-04-24T07:20:24.041Z,1.17
2023-04-24T07:22:47.568Z,1.10
2023-04-24T07:25:11.887Z,0.85
2023-04-24T07:27:36.020Z,1.20
2023-04-24T07:29:59.650Z,1.00
2023-04-24T07:32:23.228Z,1.10
2023-04-24T07:34:48.190Z,1.10
2023-04-24T07:37:11.819Z,1.15
2023-04-24T07:39:35.516Z,0.77
2023-04-24T07:42:00.128Z,0.80
2023-04-24T07:44:23.813Z,1.10
2023-04-24T07:46:47.470Z,1.10
2023-04-24T07:49:13.520Z,0.80
2023-04-24T07:51:40.193Z,0.95
2023-04-24T07:54:03.807Z,0.93
2023-04-24T07:56:28.092Z,1.00
2023-04-24T07:58:51.916Z,0.80
2023-04-24T08:01:15.438Z,0.90
2023-04-24T08:03:39.263Z,0.70
2023-04-24T08:06:02.976Z,0.85
2023-04-24T08:08:28.218Z,0.80
2023-04-24T08:10:52.096Z,1.05
2023-04-24T08:13:15.699Z,0.90
2023-04-24T08:15:39.270Z,0.90
2023-04-24T08:18:03.038Z,0.85
2023-04-24T08:20:26.824Z,0.57
2023-04-24T08:22:50.444Z,0.60
2023-04-24T08:25:15.868Z,0.70
2023-04-24T08:27:40.000Z,0.95
2023-04-24T08:30:03.669Z,0.85
2023-04-24T08:32:28.928Z,1.08
2023-04-24T08:34:53.770Z,0.70
2023-04-24T08:37:17.511Z,0.75
2023-04-24T08:39:41.156Z,0.80
2023-04-24T08:42:09.280Z,0.63
2023-04-24T08:44:34.731Z,0.85
2023-04-24T08:46:58.786Z,0.90
2023-04-24T08:49:22.902Z,0.85
2023-04-24T08:51:48.093Z,0.80
2023-04-24T08:54:11.659Z,0.77
2023-04-24T08:56:38.782Z,0.88
2023-04-24T08:59:04.011Z,0.80
2023-04-24T09:01:29.949Z,0.80
2023-04-24T09:03:55.933Z,0.80
2023-04-24T09:06:21.934Z,0.80
2023-04-24T09:08:47.926Z,0.80
2023-04-24T09:11:12.450Z,0.80
2023-04-24T09:13:36.813Z,0.80
2023-04-24T09:16:02.346Z,1.00
2023-04-24T09:18:26.178Z,0.70
2023-04-24T09:21:04.068Z,0.82
2023-04-24T09:23:30.573Z,0.77
2023-04-24T09:25:58.073Z,0.80
2023-04-24T09:28:21.720Z,0.80
2023-04-24T09:30:45.275Z,0.82
2023-04-24T09:33:17.824Z,0.80
2023-04-24T09:35:45.083Z,1.10
2023-04-24T09:38:08.960Z,0.95
2023-04-24T09:40:32.694Z,0.90
2023-04-24T09:42:58.862Z,0.70
2023-04-24T09:45:23.298Z,1.10
2023-04-24T09:47:46.937Z,0.90
2023-04-24T09:50:18.091Z,0.90
2023-04-24T09:52:44.774Z,0.90
2023-04-24T09:55:14.581Z,0.80
2023-04-24T09:57:38.177Z,0.77
2023-04-24T10:00:01.750Z,1.20
2023-04-24T10:02:35.414Z,1.10
2023-04-24T10:05:01.263Z,0.88
2023-04-24T10:07:28.542Z,0.90
2023-04-24T10:09:52.276Z,1.00
2023-04-24T10:12:17.202Z,1.08
2023-04-24T10:14:42.874Z,0.90
2023-04-24T10:17:08.697Z,1.10
2023-04-24T10:19:33.022Z,1.13
2023-04-24T10:21:58.496Z,0.90
2023-04-24T10:24:23.518Z,0.90
2023-04-24T10:26:49.340Z,0.90
2023-04-24T10:29:16.506Z,1.00
2023-04-24T10:31:41.213Z,1.00
2023-04-24T10:34:05.666Z,1.10
2023-04-24T10:36:33.319Z,0.98
2023-04-24T10:39:00.094Z,1.00
2023-04-24T10:41:28.894Z,1.00
2023-04-24T10:44:07.817Z,0.90
2023-04-24T10:46:32.919Z,0.90
2023-04-24T10:48:57.323Z,0.90
2023-04-24T10:51:24.117Z,0.80
2023-04-24T10:53:47.759Z,0.90
2023-04-24T10:56:13.286Z,1.15
2023-04-24T10:58:46.090Z,1.00
2023-04-24T11:01:10.304Z,0.80
2023-04-24T11:03:37.312Z,1.00
2023-04-24T11:06:03.821Z,1.00
2023-04-24T11:08:34.047Z,0.80
2023-04-24T11:11:05.559Z,1.00
2023-04-24T11:14:05.262Z,0.77
2023-04-24T11:16:33.788Z,0.90
2023-04-24T11:19:04.569Z,1.35
2023-04-24T11:21:29.525Z,0.90
2023-04-24T11:23:53.198Z,1.02
2023-04-24T11:26:21.807Z,0.88
2023-04-24T11:28:49.936Z,1.20
2023-04-24T11:31:39.625Z,1.30
2023-04-24T11:34:10.135Z,1.05
2023-04-24T11:36:34.670Z,0.80
2023-04-24T11:38:59.125Z,1.08
2023-04-24T11:41:23.339Z,0.77
2023-04-24T11:43:47.543Z,1.10
2023-04-24T11:46:12.015Z,1.00
2023-04-24T11:48:41.092Z,1.27
2023-04-24T11:51:04.970Z,1.20
2023-04-24T11:53:28.481Z,1.30
2023-04-24T11:55:52.117Z,1.20
2023-04-24T11:58:15.641Z,1.02
2023-04-24T12:00:39.419Z,0.93
2023-04-24T12:03:08.815Z,1.10
2023-04-24T12:05:34.362Z,1.02
2023-04-24T12:07:58.001Z,0.90
2023-04-24T12:10:23.592Z,1.00
2023-04-24T12:12:48.525Z,0.88
2023-04-24T12:15:13.534Z,0.80
2023-04-24T12:17:38.644Z,1.08
2023-04-24T12:20:05.195Z,0.95
2023-04-24T12:22:30.415Z,0.90
2023-04-24T12:25:02.889Z,1.23
2023-04-24T12:27:26.827Z,1.38
2023-04-24T12:29:55.614Z,1.27
2023-04-24T12:32:19.368Z,1.10
2023-04-24T12:34:45.893Z,1.23
2023-04-24T12:37:13.165Z,1.00
2023-04-24T12:39:38.087Z,1.10
2023-04-24T12:42:02.383Z,0.82
2023-04-24T12:44:33.211Z,0.93
2023-04-24T12:46:56.953Z,0.90
2023-04-24T12:49:20.668Z,0.80
2023-04-24T12:51:44.270Z,0.90
2023-04-24T12:54:08.339Z,1.00
2023-04-24T12:56:33.370Z,0.73
2023-04-24T12:58:56.955Z,0.95
2023-04-24T13:01:20.621Z,0.85
2023-04-24T13:03:44.934Z,0.80
2023-04-24T13:06:08.877Z,0.88
2023-04-24T13:08:32.426Z,1.02
2023-04-24T13:10:56.061Z,0.98
2023-04-24T13:13:20.976Z,1.00
2023-04-24T13:15:44.533Z,1.10
2023-04-24T13:18:08.072Z,0.90
2023-04-24T13:20:31.950Z,1.10
2023-04-24T13:22:55.782Z,0.90
2023-04-24T13:25:21.423Z,1.10
2023-04-24T13:27:44.941Z,1.00
2023-04-24T13:30:11.910Z,1.10
2023-04-24T13:32:36.459Z,1.35
2023-04-24T13:35:00.377Z,1.30
2023-04-24T13:37:24.305Z,1.60
2023-04-24T13:39:47.885Z,1.00
2023-04-24T13:42:11.826Z,1.10
2023-04-24T13:44:35.575Z,1.00
2023-04-24T13:47:01.187Z,1.10
2023-04-24T13:49:27.060Z,0.90
2023-04-24T13:51:50.765Z,1.10
2023-04-24T13:54:14.496Z,1.20
2023-04-24T13:56:38.216Z,1.30
2023-04-24T13:59:02.006Z,1.02
2023-04-24T14:01:26.064Z,1.30
2023-04-24T14:03:51.797Z,1.30
2023-04-24T14:06:15.586Z,1.10
2023-04-24T14:08:39.211Z,1.00
2023-04-24T14:11:04.489Z,1.05
2023-04-24T14:13:28.739Z,1.13
2023-04-24T14:15:53.655Z,1.00
2023-04-24T14:18:17.448Z,1.10
2023-04-24T14:20:42.426Z,1.13
2023-04-24T14:23:06.556Z,1.13
2023-04-24T14:25:30.112Z,1.00
2023-04-24T14:27:54.052Z,1.08
2023-04-24T14:30:17.953Z,0.90
2023-04-24T14:32:41.911Z,1.08
2023-04-24T14:35:06.592Z,1.10
2023-04-24T14:37:31.863Z,0.95
2023-04-24T14:40:11.032Z,0.98
2023-04-24T14:42:35.291Z,1.00
2023-04-24T14:44:58.847Z,1.13
2023-04-24T14:47:23.270Z,0.93
2023-04-24T14:49:48.354Z,1.25
2023-04-24T14:52:12.086Z,1.15
2023-04-24T14:54:37.069Z,1.17
2023-04-24T14:57:02.297Z,1.20
2023-04-24T14:59:25.957Z,1.00
2023-04-24T15:01:50.057Z,1.30
2023-04-24T15:04:14.490Z,1.30
2023-04-24T15:06:38.309Z,1.40
2023-04-24T15:09:02.035Z,1.95
2023-04-24T15:11:27.122Z,1.33
2023-04-24T15:13:50.927Z,1.20
2023-04-24T15:16:14.685Z,1.30
2023-04-24T15:18:38.297Z,1.50
2023-04-24T15:21:01.977Z,1.40
2023-04-24T15:23:25.536Z,1.40
2023-04-24T15:25:49.748Z,1.40
2023-04-24T15:28:14.819Z,1.20
2023-04-24T15:30:38.542Z,1.30
2023-04-24T15:33:02.798Z,1.40
2023-04-24T15:35:28.113Z,1.27
2023-04-24T15:37:51.741Z,1.70
2023-04-24T15:40:16.782Z,1.58
2023-04-24T15:42:41.011Z,8.70
2023-04-24T15:45:06.681Z,2.67
2023-04-24T15:47:30.663Z,2.50
2023-04-24T15:49:54.800Z,1.38
2023-04-24T15:52:18.519Z,1.98
2023-04-24T15:54:42.265Z,1.60
2023-04-24T15:57:05.877Z,4.32
2023-04-24T15:59:31.366Z,5.40
2023-04-24T16:01:56.875Z,2.60
2023-04-24T16:04:20.780Z,1.77
2023-04-24T16:06:44.418Z,1.48
2023-04-24T16:09:08.625Z,1.30
2023-04-24T16:11:32.806Z,1.60
2023-04-24T16:13:56.476Z,1.33
2023-04-24T16:16:20.076Z,1.50
2023-04-24T16:18:45.139Z,1.90
2023-04-24T16:21:09.404Z,0.98
2023-04-24T16:23:33.036Z,1.38
2023-04-24T16:25:56.582Z,1.10
2023-04-24T16:28:20.534Z,1.20
2023-04-24T16:30:44.177Z,1.30
2023-04-24T16:33:09.226Z,1.40
2023-04-24T16:35:34.307Z,1.50
2023-04-24T16:37:57.940Z,1.45
2023-04-24T16:40:22.066Z,1.90
2023-04-24T16:42:45.670Z,1.80
2023-04-24T16:45:11.003Z,1.35
2023-04-24T16:47:34.784Z,1.83
2023-04-24T16:49:58.484Z,1.60
2023-04-24T16:52:23.505Z,1.60
2023-04-24T16:54:47.029Z,1.20
2023-04-24T16:57:10.795Z,1.38
2023-04-24T16:59:35.118Z,1.52
2023-04-24T17:01:58.775Z,1.70
2023-04-24T17:04:22.469Z,1.35
2023-04-24T17:06:46.182Z,1.50
2023-04-24T17:09:13.045Z,1.50
2023-04-24T17:11:37.164Z,1.40
2023-04-24T17:14:00.820Z,1.50
2023-04-24T17:16:24.814Z,1.60
2023-04-24T17:18:48.611Z,1.60
2023-04-24T17:21:12.520Z,1.70
2023-04-24T17:23:37.416Z,1.50
2023-04-24T17:26:03.883Z,1.42
2023-04-24T17:28:29.615Z,1.63
2023-04-24T17:30:55.521Z,1.55
2023-04-24T17:33:19.118Z,1.70
2023-04-24T17:35:42.814Z,1.75
2023-04-24T17:38:06.372Z,18.67
2023-04-24T17:40:30.162Z,5.25
2023-04-24T17:42:55.065Z,1.98
2023-04-24T17:45:18.692Z,10.48
2023-04-24T17:47:42.434Z,2.78
2023-04-24T17:50:07.246Z,3.00
2023-04-24T17:52:30.999Z,1.65
2023-04-24T17:54:54.648Z,1.90
2023-04-24T17:57:18.220Z,1.88
2023-04-24T17:59:43.345Z,1.73
2023-04-24T18:02:06.964Z,1.60
2023-04-24T18:04:30.707Z,1.70
2023-04-24T18:06:54.339Z,1.50
2023-04-24T18:09:20.753Z,1.38
2023-04-24T18:11:44.422Z,1.45
2023-04-24T18:14:08.125Z,1.20
2023-04-24T18:16:33.065Z,1.17
2023-04-24T18:18:56.758Z,0.80
2023-04-24T18:21:20.757Z,0.88
2023-04-24T18:23:44.804Z,0.77
2023-04-24T18:26:08.420Z,0.80
2023-04-24T18:28:34.711Z,1.60
2023-04-24T18:30:58.489Z,1.10
2023-04-24T18:33:23.518Z,0.50
2023-04-24T18:35:47.071Z,0.50
2023-04-24T18:38:10.679Z,0.60
2023-04-24T18:40:34.205Z,0.55
2023-04-24T18:42:58.242Z,0.80
2023-04-24T18:45:21.972Z,0.70
2023-04-24T18:47:45.760Z,0.80
2023-04-24T18:50:12.363Z,0.68
2023-04-24T18:52:36.100Z,0.80
2023-04-24T18:55:00.288Z,0.80
2023-04-24T18:57:23.923Z,0.80
2023-04-24T18:59:47.541Z,0.70
2023-04-24T19:02:11.416Z,0.80
2023-04-24T19:04:35.157Z,0.70
2023-04-24T19:07:00.177Z,0.93
2023-04-24T19:09:23.775Z,0.77
2023-04-24T19:11:47.706Z,0.77
2023-04-24T19:14:11.317Z,1.00
2023-04-24T19:16:35.032Z,0.90
2023-04-24T19:18:58.598Z,0.98
2023-04-24T19:21:22.980Z,1.10
2023-04-24T19:23:50.418Z,1.02
2023-04-24T19:26:14.521Z,1.10
2023-04-24T19:28:39.203Z,0.90
2023-04-24T19:31:03.521Z,1.13
2023-04-24T19:33:27.075Z,1.00
2023-04-24T19:35:50.769Z,1.30
2023-04-24T19:38:14.350Z,1.27
2023-04-24T19:40:39.455Z,1.23
2023-04-24T19:43:03.007Z,1.30
2023-04-24T19:45:26.630Z,1.20
2023-04-24T19:47:50.360Z,1.30
2023-04-24T19:50:15.004Z,1.40
2023-04-24T19:52:38.722Z,1.30
2023-04-24T19:55:02.539Z,1.20
2023-04-24T19:57:27.465Z,1.30
2023-04-24T19:59:51.090Z,1.30
2023-04-24T20:02:14.824Z,1.63
2023-04-24T20:04:38.850Z,1.50
2023-04-24T20:07:02.610Z,1.92
2023-04-24T20:09:26.243Z,1.80
2023-04-24T20:11:51.299Z,1.75
2023-04-24T20:14:16.419Z,1.90
2023-04-24T20:16:40.580Z,1.90
2023-04-24T20:19:04.256Z,1.65
2023-04-24T20:21:27.970Z,1.80
2023-04-24T20:23:52.947Z,1.80
2023-04-24T20:26:16.540Z,1.85
2023-04-24T20:28:40.189Z,2.10
2023-04-24T20:31:05.515Z,2.22
2023-04-24T20:33:30.467Z,1.67
2023-04-24T20:35:54.012Z,2.88
2023-04-24T20:38:18.617Z,2.17
2023-04-24T20:40:56.128Z,2.30
2023-04-24T20:43:23.028Z,2.08
2023-04-24T20:45:46.966Z,2.45
2023-04-24T20:48:12.862Z,2.10
2023-04-24T20:50:41.311Z,2.72
2023-04-24T20:53:05.866Z,2.53
2023-04-24T20:55:29.476Z,2.50
2023-04-24T20:57:53.649Z,2.45
2023-04-24T21:00:17.922Z,2.83
2023-04-24T21:02:41.600Z,2.55
2023-04-24T21:05:08.063Z,2.90
2023-04-24T21:07:31.862Z,2.78
2023-04-24T21:09:55.499Z,3.08
2023-04-24T21:12:19.232Z,3.45
2023-04-24T21:14:42.884Z,3.15
2023-04-24T21:17:06.562Z,3.38
2023-04-24T21:19:30.145Z,3.30
2023-04-24T21:21:55.133Z,3.22
2023-04-24T21:24:18.628Z,3.30
2023-04-24T21:26:42.349Z,3.15
2023-04-24T21:29:05.993Z,3.20
2023-04-24T21:31:29.678Z,3.30
2023-04-24T21:33:53.191Z,3.15
2023-04-24T21:36:16.905Z,3.30
2023-04-24T21:38:41.883Z,3.58
2023-04-24T21:41:05.593Z,3.40
2023-04-24T21:43:43.497Z,4.03
2023-04-24T21:46:08.564Z,3.72
2023-04-24T21:48:32.144Z,4.07
2023-04-24T21:50:55.825Z,3.95
2023-04-24T21:53:19.339Z,4.00
2023-04-24T21:55:44.380Z,4.18
2023-04-24T21:58:07.924Z,4.13
2023-04-24T22:00:31.602Z,3.97
2023-04-24T22:02:55.230Z,4.57
2023-04-24T22:05:20.341Z,5.20
2023-04-24T22:07:47.135Z,4.55
2023-04-24T22:10:13.932Z,3.45
2023-04-24T22:12:39.259Z,4.80
2023-04-24T22:15:04.144Z,4.95
2023-04-24T22:17:28.003Z,5.20
2023-04-24T22:19:51.716Z,5.28
2023-04-24T22:22:15.382Z,5.00
2023-04-24T22:24:39.069Z,4.85
2023-04-24T22:27:03.000Z,5.13
2023-04-24T22:29:28.067Z,4.43
2023-04-24T22:31:51.782Z,4.55
2023-04-24T22:34:17.074Z,4.50
2023-04-24T22:36:40.867Z,4.70
2023-04-24T22:39:05.454Z,4.60
2023-04-24T22:41:28.994Z,4.55
2023-04-24T22:43:52.734Z,4.60
2023-04-24T22:46:18.409Z,4.85
2023-04-24T22:48:42.042Z,4.53
2023-04-24T22:51:06.613Z,4.70
2023-04-24T22:53:30.316Z,4.63
2023-04-24T22:55:53.905Z,4.15
2023-04-24T22:58:17.593Z,4.05
2023-04-24T23:00:41.200Z,4.00
2023-04-24T23:03:06.833Z,3.05
2023-04-24T23:05:31.128Z,4.13
2023-04-24T23:07:54.928Z,4.70
2023-04-24T23:10:18.585Z,4.47
2023-04-24T23:12:42.215Z,4.93
2023-04-24T23:15:07.227Z,4.90
2023-04-24T23:17:30.857Z,4.65
2023-04-24T23:19:55.923Z,4.93
2023-04-24T23:22:19.653Z,5.00
2023-04-24T23:24:43.239Z,4.95
2023-04-24T23:27:06.983Z,4.88
2023-04-24T23:29:30.629Z,4.78
2023-04-24T23:31:54.660Z,3.40
2023-04-24T23:34:20.118Z,4.22
2023-04-24T23:36:45.170Z,4.20
2023-04-24T23:39:08.764Z,4.30
2023-04-24T23:41:32.927Z,3.25
2023-04-24T23:43:56.455Z,3.97
2023-04-24T23:46:20.193Z,4.05
2023-04-24T23:48:43.760Z,3.80
2023-04-24T23:51:07.690Z,3.90
2023-04-24T23:53:32.611Z,3.72
2023-04-24T23:55:56.426Z,3.72
2023-04-24T23:58:19.970Z,3.50
